createdAt,value
2023-03-29T00:00:41.984Z,93184.00
2023-03-29T00:01:42.071Z,93182.00
2023-03-29T00:02:42.091Z,93180.00
2023-03-29T00:03:42.020Z,93182.00
2023-03-29T00:04:42.030Z,93188.00
2023-03-29T00:05:41.928Z,93198.00
2023-03-29T00:06:41.944Z,93204.00
2023-03-29T00:07:41.941Z,93204.00
2023-03-29T00:08:41.995Z,93208.00
2023-03-29T00:09:41.924Z,93202.00
2023-03-29T00:10:42.791Z,93202.00
2023-03-29T00:11:42.409Z,93202.00
2023-03-29T00:12:41.971Z,93200.00
2023-03-29T00:13:41.921Z,93204.00
2023-03-29T00:14:41.914Z,93208.00
2023-03-29T00:15:41.906Z,93216.00
2023-03-29T00:16:41.926Z,93220.00
2023-03-29T00:17:41.938Z,93218.00
2023-03-29T00:18:41.950Z,93220.00
2023-03-29T00:19:41.881Z,93210.00
2023-03-29T00:20:41.826Z,93206.00
2023-03-29T00:21:41.867Z,93204.00
2023-03-29T00:22:41.780Z,93204.00
2023-03-29T00:23:41.754Z,93200.00
2023-03-29T00:24:41.735Z,93200.00
2023-03-29T00:25:42.304Z,93202.00
2023-03-29T00:26:41.650Z,93200.00
2023-03-29T00:27:41.600Z,93202.00
2023-03-29T00:28:41.552Z,93204.00
2023-03-29T00:29:41.534Z,93202.00
2023-03-29T00:30:41.510Z,93204.00
2023-03-29T00:31:41.571Z,93204.00
2023-03-29T00:32:41.520Z,93216.00
2023-03-29T00:33:41.477Z,93216.00
2023-03-29T00:34:41.396Z,93218.00
2023-03-29T00:35:41.420Z,93220.00
2023-03-29T00:36:41.347Z,93225.00
2023-03-29T00:37:41.403Z,93227.00
2023-03-29T00:38:41.297Z,93229.00
2023-03-29T00:39:41.253Z,93233.00
2023-03-29T00:40:41.220Z,93229.00
2023-03-29T00:41:41.811Z,93229.00
2023-03-29T00:42:41.152Z,93235.00
2023-03-29T00:43:41.093Z,93235.00
2023-03-29T00:44:41.069Z,93239.00
2023-03-29T00:45:41.041Z,93237.00
2023-03-29T00:46:41.061Z,93237.00
2023-03-29T00:47:41.098Z,93241.00
2023-03-29T00:48:40.952Z,93249.00
2023-03-29T00:49:40.912Z,93251.00
2023-03-29T00:50:40.893Z,93255.00
2023-03-29T00:51:40.856Z,93253.00
2023-03-29T00:52:40.829Z,93257.00
2023-03-29T00:53:40.809Z,93259.00
2023-03-29T00:54:40.792Z,93261.00
2023-03-29T00:55:40.763Z,93261.00
2023-03-29T00:56:40.809Z,93261.00
2023-03-29T00:57:40.709Z,93257.00
2023-03-29T00:58:40.674Z,93263.00
2023-03-29T00:59:40.651Z,93263.00
2023-03-29T01:00:40.617Z,93265.00
2023-03-29T01:01:40.612Z,93265.00
2023-03-29T01:02:40.658Z,93267.00
2023-03-29T01:03:40.562Z,93267.00
2023-03-29T01:04:40.483Z,93263.00
2023-03-29T01:05:40.495Z,93257.00
2023-03-29T01:06:40.472Z,93255.00
2023-03-29T01:07:40.455Z,93253.00
2023-03-29T01:08:40.465Z,93255.00
2023-03-29T01:09:40.439Z,93255.00
2023-03-29T01:10:40.446Z,93255.00
2023-03-29T01:11:40.438Z,93249.00
2023-03-29T01:12:40.412Z,93247.00
2023-03-29T01:13:40.388Z,93251.00
2023-03-29T01:14:40.358Z,93257.00
2023-03-29T01:15:40.337Z,93257.00
2023-03-29T01:16:40.338Z,93253.00
2023-03-29T01:17:40.302Z,93255.00
2023-03-29T01:18:40.216Z,93255.00
2023-03-29T01:19:40.164Z,93253.00
2023-03-29T01:20:40.121Z,93253.00
2023-03-29T01:21:40.085Z,93259.00
2023-03-29T01:22:40.032Z,93259.00
2023-03-29T01:23:40.011Z,93259.00
2023-03-29T01:24:39.962Z,93259.00
2023-03-29T01:25:39.932Z,93257.00
2023-03-29T01:26:39.891Z,93255.00
2023-03-29T01:27:40.342Z,93255.00
2023-03-29T01:28:39.821Z,93255.00
2023-03-29T01:29:39.858Z,93257.00
2023-03-29T01:30:39.747Z,93257.00
2023-03-29T01:31:39.757Z,93257.00
2023-03-29T01:32:39.703Z,93257.00
2023-03-29T01:33:39.655Z,93257.00
2023-03-29T01:34:39.605Z,93257.00
2023-03-29T01:35:39.594Z,93261.00
2023-03-29T01:36:39.589Z,93267.00
2023-03-29T01:37:39.502Z,93269.00
2023-03-29T01:38:39.489Z,93269.00
2023-03-29T01:39:39.441Z,93269.00
2023-03-29T01:40:39.396Z,93269.00
2023-03-29T01:41:39.349Z,93271.00
2023-03-29T01:42:39.324Z,93272.00
2023-03-29T01:43:39.283Z,93271.00
2023-03-29T01:44:39.223Z,93269.00
2023-03-29T01:45:39.281Z,93269.00
2023-03-29T01:46:39.406Z,93271.00
2023-03-29T01:47:39.876Z,93269.00
2023-03-29T01:48:39.133Z,93265.00
2023-03-29T01:49:39.140Z,93263.00
2023-03-29T01:50:39.173Z,93265.00
2023-03-29T01:51:39.188Z,93267.00
2023-03-29T01:52:39.129Z,93265.00
2023-03-29T01:53:39.082Z,93261.00
2023-03-29T01:54:39.088Z,93251.00
2023-03-29T01:55:39.074Z,93247.00
2023-03-29T01:56:39.109Z,93249.00
2023-03-29T01:57:39.073Z,93255.00
2023-03-29T01:58:39.064Z,93257.00
2023-03-29T01:59:39.108Z,93257.00
2023-03-29T02:00:39.048Z,93261.00
2023-03-29T02:01:39.105Z,93259.00
2023-03-29T02:02:39.088Z,93257.00
2023-03-29T02:03:39.072Z,93257.00
2023-03-29T02:04:39.037Z,93253.00
2023-03-29T02:05:39.137Z,93245.00
2023-03-29T02:06:39.113Z,93231.00
2023-03-29T02:07:39.016Z,93229.00
2023-03-29T02:08:39.014Z,93225.00
2023-03-29T02:09:39.007Z,93222.00
2023-03-29T02:10:39.011Z,93224.00
2023-03-29T02:11:39.005Z,93222.00
2023-03-29T02:12:39.012Z,93229.00
2023-03-29T02:13:38.997Z,93239.00
2023-03-29T02:14:38.986Z,93239.00
2023-03-29T02:15:39.019Z,93233.00
2023-03-29T02:16:38.980Z,93229.00
2023-03-29T02:17:39.064Z,93229.00
2023-03-29T02:18:38.973Z,93233.00
2023-03-29T02:19:38.969Z,93233.00
2023-03-29T02:20:39.160Z,93229.00
2023-03-29T02:21:38.950Z,93229.00
2023-03-29T02:22:38.939Z,93231.00
2023-03-29T02:23:38.945Z,93235.00
2023-03-29T02:24:38.928Z,93233.00
2023-03-29T02:25:38.907Z,93229.00
2023-03-29T02:26:38.875Z,93224.00
2023-03-29T02:27:38.903Z,93222.00
2023-03-29T02:28:38.867Z,93220.00
2023-03-29T02:29:38.864Z,93214.00
2023-03-29T02:30:38.827Z,93214.00
2023-03-29T02:31:38.901Z,93210.00
2023-03-29T02:32:38.839Z,93212.00
2023-03-29T02:33:38.798Z,93214.00
2023-03-29T02:34:38.876Z,93212.00
2023-03-29T02:35:38.814Z,93214.00
2023-03-29T02:36:39.923Z,93206.00
2023-03-29T02:37:38.736Z,93206.00
2023-03-29T02:38:38.735Z,93206.00
2023-03-29T02:39:38.788Z,93204.00
2023-03-29T02:40:38.722Z,93212.00
2023-03-29T02:41:38.714Z,93212.00
2023-03-29T02:42:38.697Z,93214.00
2023-03-29T02:43:38.682Z,93214.00
2023-03-29T02:44:38.682Z,93212.00
2023-03-29T02:45:38.659Z,93206.00
2023-03-29T02:46:38.706Z,93208.00
2023-03-29T02:47:38.701Z,93206.00
2023-03-29T02:48:38.864Z,93210.00
2023-03-29T02:49:38.637Z,93216.00
2023-03-29T02:50:38.684Z,93218.00
2023-03-29T02:51:38.619Z,93220.00
2023-03-29T02:52:38.612Z,93224.00
2023-03-29T02:53:38.601Z,93233.00
2023-03-29T02:54:38.586Z,93237.00
2023-03-29T02:55:38.583Z,93231.00
2023-03-29T02:56:38.601Z,93233.00
2023-03-29T02:57:38.578Z,93229.00
2023-03-29T02:58:38.571Z,93229.00
2023-03-29T02:59:38.582Z,93227.00
2023-03-29T03:00:38.551Z,93212.00
2023-03-29T03:01:38.587Z,93210.00
2023-03-29T03:02:38.775Z,93210.00
2023-03-29T03:03:38.627Z,93206.00
2023-03-29T03:04:38.512Z,93210.00
2023-03-29T03:05:38.521Z,93210.00
2023-03-29T03:06:38.518Z,93204.00
2023-03-29T03:07:38.479Z,93204.00
2023-03-29T03:08:38.464Z,93206.00
2023-03-29T03:09:38.465Z,93214.00
2023-03-29T03:10:38.447Z,93218.00
2023-03-29T03:11:38.435Z,93229.00
2023-03-29T03:12:38.413Z,93224.00
2023-03-29T03:13:38.389Z,93220.00
2023-03-29T03:14:38.370Z,93220.00
2023-03-29T03:15:38.364Z,93222.00
2023-03-29T03:16:38.399Z,93224.00
2023-03-29T03:17:38.375Z,93222.00
2023-03-29T03:18:38.344Z,93225.00
2023-03-29T03:19:38.327Z,93222.00
2023-03-29T03:20:38.315Z,93224.00
2023-03-29T03:21:38.316Z,93216.00
2023-03-29T03:22:38.377Z,93210.00
2023-03-29T03:23:38.296Z,93204.00
2023-03-29T03:24:38.868Z,93204.00
2023-03-29T03:25:38.282Z,93198.00
2023-03-29T03:26:38.314Z,93204.00
2023-03-29T03:27:38.351Z,93214.00
2023-03-29T03:28:38.350Z,93216.00
2023-03-29T03:29:38.425Z,93208.00
2023-03-29T03:30:38.401Z,93202.00
2023-03-29T03:31:38.446Z,93196.00
2023-03-29T03:32:38.527Z,93194.00
2023-03-29T03:33:38.461Z,93184.00
2023-03-29T03:34:38.490Z,93182.00
2023-03-29T03:35:38.516Z,93186.00
2023-03-29T03:36:38.538Z,93184.00
2023-03-29T03:37:38.556Z,93188.00
2023-03-29T03:38:38.645Z,93190.00
2023-03-29T03:39:38.559Z,93198.00
2023-03-29T03:40:38.575Z,93196.00
2023-03-29T03:41:38.609Z,93192.00
2023-03-29T03:42:38.583Z,93186.00
2023-03-29T03:43:38.561Z,93174.00
2023-03-29T03:44:38.543Z,93176.00
2023-03-29T03:45:38.624Z,93184.00
2023-03-29T03:46:38.585Z,93190.00
2023-03-29T03:47:38.641Z,93198.00
2023-03-29T03:48:38.753Z,93198.00
2023-03-29T03:49:38.650Z,93188.00
2023-03-29T03:50:38.666Z,93186.00
2023-03-29T03:51:38.692Z,93182.00
2023-03-29T03:52:38.701Z,93180.00
2023-03-29T03:53:38.729Z,93174.00
2023-03-29T03:54:38.739Z,93174.00
2023-03-29T03:55:38.751Z,93178.00
2023-03-29T03:56:39.417Z,93182.00
2023-03-29T03:57:38.781Z,93176.00
2023-03-29T03:58:38.798Z,93172.00
2023-03-29T03:59:38.819Z,93167.00
2023-03-29T04:00:38.845Z,93159.00
2023-03-29T04:01:38.873Z,93161.00
2023-03-29T04:02:38.945Z,93169.00
2023-03-29T04:03:38.969Z,93180.00
2023-03-29T04:04:38.949Z,93184.00
2023-03-29T04:05:38.963Z,93192.00
2023-03-29T04:06:40.182Z,93198.00
2023-03-29T04:07:39.006Z,93196.00
2023-03-29T04:08:39.013Z,93194.00
2023-03-29T04:09:39.007Z,93192.00
2023-03-29T04:10:38.995Z,93190.00
2023-03-29T04:11:39.062Z,93186.00
2023-03-29T04:12:38.978Z,93184.00
2023-03-29T04:13:38.963Z,93186.00
2023-03-29T04:14:38.928Z,93182.00
2023-03-29T04:15:38.938Z,93182.00
2023-03-29T04:16:38.877Z,93180.00
2023-03-29T04:17:39.008Z,93178.00
2023-03-29T04:18:38.887Z,93176.00
2023-03-29T04:19:38.834Z,93178.00
2023-03-29T04:20:38.805Z,93180.00
2023-03-29T04:21:38.775Z,93184.00
2023-03-29T04:22:38.768Z,93182.00
2023-03-29T04:23:38.738Z,93182.00
2023-03-29T04:24:38.727Z,93174.00
2023-03-29T04:25:38.707Z,93172.00
2023-03-29T04:26:38.729Z,93174.00
2023-03-29T04:27:38.702Z,93170.00
2023-03-29T04:28:38.695Z,93165.00
2023-03-29T04:29:38.711Z,93159.00
2023-03-29T04:30:38.760Z,93157.00
2023-03-29T04:31:38.815Z,93157.00
2023-03-29T04:32:38.829Z,93163.00
2023-03-29T04:33:38.761Z,93161.00
2023-03-29T04:34:38.791Z,93155.00
2023-03-29T04:35:38.838Z,93149.00
2023-03-29T04:36:38.799Z,93145.00
2023-03-29T04:37:38.788Z,93141.00
2023-03-29T04:38:38.811Z,93143.00
2023-03-29T04:39:38.813Z,93145.00
2023-03-29T04:40:38.820Z,93153.00
2023-03-29T04:41:38.813Z,93163.00
2023-03-29T04:42:38.819Z,93163.00
2023-03-29T04:43:40.260Z,93167.00
2023-03-29T04:44:38.802Z,93165.00
2023-03-29T04:45:38.784Z,93167.00
2023-03-29T04:46:38.802Z,93163.00
2023-03-29T04:47:38.799Z,93157.00
2023-03-29T04:48:38.741Z,93159.00
2023-03-29T04:49:38.742Z,93161.00
2023-03-29T04:50:38.730Z,93167.00
2023-03-29T04:51:38.721Z,93170.00
2023-03-29T04:52:38.687Z,93170.00
2023-03-29T04:53:38.679Z,93167.00
2023-03-29T04:54:38.644Z,93172.00
2023-03-29T04:55:38.615Z,93176.00
2023-03-29T04:56:38.606Z,93174.00
2023-03-29T04:57:38.545Z,93170.00
2023-03-29T04:58:38.521Z,93167.00
2023-03-29T04:59:38.520Z,93163.00
2023-03-29T05:00:38.553Z,93165.00
2023-03-29T05:01:38.630Z,93161.00
2023-03-29T05:02:38.666Z,93161.00
2023-03-29T05:03:38.654Z,93163.00
2023-03-29T05:04:38.710Z,93163.00
2023-03-29T05:05:38.722Z,93159.00
2023-03-29T05:06:38.734Z,93159.00
2023-03-29T05:07:38.751Z,93159.00
2023-03-29T05:08:38.789Z,93159.00
2023-03-29T05:09:38.829Z,93163.00
2023-03-29T05:10:38.858Z,93163.00
2023-03-29T05:11:38.896Z,93165.00
2023-03-29T05:12:38.936Z,93163.00
2023-03-29T05:13:38.971Z,93159.00
2023-03-29T05:14:38.999Z,93157.00
2023-03-29T05:15:40.795Z,93157.00
2023-03-29T05:16:39.129Z,93153.00
2023-03-29T05:17:39.154Z,93167.00
2023-03-29T05:18:39.121Z,93170.00
2023-03-29T05:19:39.154Z,93174.00
2023-03-29T05:20:39.180Z,93176.00
2023-03-29T05:21:39.213Z,93178.00
2023-03-29T05:22:39.232Z,93174.00
2023-03-29T05:23:39.267Z,93167.00
2023-03-29T05:24:39.419Z,93167.00
2023-03-29T05:25:39.314Z,93163.00
2023-03-29T05:26:39.366Z,93161.00
2023-03-29T05:27:39.393Z,93161.00
2023-03-29T05:28:39.469Z,93157.00
2023-03-29T05:29:39.466Z,93155.00
2023-03-29T05:30:39.500Z,93155.00
2023-03-29T05:31:39.584Z,93159.00
2023-03-29T05:32:40.470Z,93163.00
2023-03-29T05:33:39.489Z,93159.00
2023-03-29T05:34:39.500Z,93155.00
2023-03-29T05:35:39.472Z,93163.00
2023-03-29T05:36:39.412Z,93165.00
2023-03-29T05:37:39.385Z,93165.00
2023-03-29T05:38:39.386Z,93159.00
2023-03-29T05:39:39.366Z,93163.00
2023-03-29T05:40:39.369Z,93159.00
2023-03-29T05:41:39.400Z,93159.00
2023-03-29T05:42:39.409Z,93163.00
2023-03-29T05:43:39.430Z,93165.00
2023-03-29T05:44:39.423Z,93163.00
2023-03-29T05:45:39.468Z,93161.00
2023-03-29T05:46:39.484Z,93163.00
2023-03-29T05:47:39.411Z,93165.00
2023-03-29T05:48:39.372Z,93163.00
2023-03-29T05:49:39.349Z,93167.00
2023-03-29T05:50:39.318Z,93163.00
2023-03-29T05:51:39.289Z,93163.00
2023-03-29T05:52:39.249Z,93167.00
2023-03-29T05:53:39.205Z,93174.00
2023-03-29T05:54:39.159Z,93174.00
2023-03-29T05:55:39.443Z,93176.00
2023-03-29T05:56:39.150Z,93174.00
2023-03-29T05:57:39.120Z,93174.00
2023-03-29T05:58:39.158Z,93174.00
2023-03-29T05:59:39.075Z,93174.00
2023-03-29T06:00:39.065Z,93176.00
2023-03-29T06:01:39.055Z,93172.00
2023-03-29T06:02:39.107Z,93165.00
2023-03-29T06:03:39.171Z,93165.00
2023-03-29T06:04:39.208Z,93165.00
2023-03-29T06:05:38.972Z,93172.00
2023-03-29T06:06:38.939Z,93163.00
2023-03-29T06:07:38.903Z,93157.00
2023-03-29T06:08:38.838Z,93153.00
2023-03-29T06:09:38.804Z,93153.00
2023-03-29T06:10:38.759Z,93157.00
2023-03-29T06:11:38.704Z,93159.00
2023-03-29T06:12:38.645Z,93159.00
2023-03-29T06:13:38.597Z,93159.00
2023-03-29T06:14:38.569Z,93161.00
2023-03-29T06:15:38.558Z,93153.00
2023-03-29T06:16:40.192Z,93153.00
2023-03-29T06:17:38.540Z,93139.00
2023-03-29T06:18:38.432Z,93141.00
2023-03-29T06:19:38.374Z,93145.00
2023-03-29T06:20:38.308Z,93143.00
2023-03-29T06:21:38.248Z,93147.00
2023-03-29T06:22:38.185Z,93155.00
2023-03-29T06:23:38.113Z,93159.00
2023-03-29T06:24:38.050Z,93151.00
2023-03-29T06:25:37.990Z,93149.00
2023-03-29T06:26:37.933Z,93155.00
2023-03-29T06:27:37.879Z,93145.00
2023-03-29T06:28:37.831Z,93147.00
2023-03-29T06:29:37.775Z,93153.00
2023-03-29T06:30:37.716Z,93149.00
2023-03-29T06:31:37.683Z,93147.00
2023-03-29T06:32:37.655Z,93151.00
2023-03-29T06:33:37.519Z,93149.00
2023-03-29T06:34:38.572Z,93155.00
2023-03-29T06:35:38.054Z,93157.00
2023-03-29T06:36:39.372Z,93155.00
2023-03-29T06:37:38.875Z,93153.00
2023-03-29T06:38:37.427Z,93145.00
2023-03-29T06:39:37.948Z,93145.00
2023-03-29T06:40:38.872Z,93147.00
2023-03-29T06:41:37.357Z,93147.00
2023-03-29T06:42:37.457Z,93143.00
2023-03-29T06:43:37.256Z,93137.00
2023-03-29T06:44:37.195Z,93151.00
2023-03-29T06:45:37.144Z,93153.00
2023-03-29T06:46:37.150Z,93151.00
2023-03-29T06:47:37.106Z,93151.00
2023-03-29T06:48:37.958Z,93157.00
2023-03-29T06:49:36.935Z,93159.00
2023-03-29T06:50:36.903Z,93157.00
2023-03-29T06:51:36.861Z,93157.00
2023-03-29T06:52:36.852Z,93159.00
2023-03-29T06:53:36.801Z,93153.00
2023-03-29T06:54:36.732Z,93147.00
2023-03-29T06:55:36.684Z,93145.00
2023-03-29T06:56:36.959Z,93149.00
2023-03-29T06:57:36.580Z,93153.00
2023-03-29T06:58:36.546Z,93149.00
2023-03-29T06:59:36.482Z,93161.00
2023-03-29T07:00:36.412Z,93167.00
2023-03-29T07:01:36.389Z,93169.00
2023-03-29T07:02:36.296Z,93165.00
2023-03-29T07:03:36.254Z,93161.00
2023-03-29T07:04:38.048Z,93157.00
2023-03-29T07:05:36.126Z,93165.00
2023-03-29T07:06:36.079Z,93155.00
2023-03-29T07:07:36.026Z,93159.00
2023-03-29T07:08:35.993Z,93159.00
2023-03-29T07:09:37.998Z,93172.00
2023-03-29T07:10:35.925Z,93170.00
2023-03-29T07:11:35.891Z,93167.00
2023-03-29T07:12:35.851Z,93178.00
2023-03-29T07:13:35.788Z,93178.00
2023-03-29T07:14:35.756Z,93182.00
2023-03-29T07:15:35.732Z,93176.00
2023-03-29T07:16:35.748Z,93188.00
2023-03-29T07:17:35.656Z,93188.00
2023-03-29T07:18:35.632Z,93186.00
2023-03-29T07:19:35.553Z,93182.00
2023-03-29T07:20:35.503Z,93188.00
2023-03-29T07:21:37.862Z,93190.00
2023-03-29T07:22:35.508Z,93196.00
2023-03-29T07:23:35.480Z,93198.00
2023-03-29T07:24:35.515Z,93194.00
2023-03-29T07:25:35.462Z,93192.00
2023-03-29T07:26:35.436Z,93196.00
2023-03-29T07:27:35.421Z,93200.00
2023-03-29T07:28:35.429Z,93196.00
2023-03-29T07:29:35.433Z,93194.00
2023-03-29T07:30:35.445Z,93194.00
2023-03-29T07:31:35.454Z,93190.00
2023-03-29T07:32:35.549Z,93192.00
2023-03-29T07:33:35.502Z,93188.00
2023-03-29T07:34:35.417Z,93190.00
2023-03-29T07:35:35.417Z,93192.00
2023-03-29T07:36:35.970Z,93190.00
2023-03-29T07:37:35.345Z,93194.00
2023-03-29T07:38:35.317Z,93180.00
2023-03-29T07:39:35.293Z,93190.00
2023-03-29T07:40:35.265Z,93190.00
2023-03-29T07:41:35.235Z,93184.00
2023-03-29T07:42:35.195Z,93184.00
2023-03-29T07:43:35.156Z,93186.00
2023-03-29T07:44:35.122Z,93186.00
2023-03-29T07:45:35.114Z,93180.00
2023-03-29T07:46:35.033Z,93178.00
2023-03-29T07:47:35.027Z,93180.00
2023-03-29T07:48:35.021Z,93184.00
2023-03-29T07:49:34.986Z,93178.00
2023-03-29T07:50:34.862Z,93192.00
2023-03-29T07:51:34.805Z,93190.00
2023-03-29T07:52:34.773Z,93182.00
2023-03-29T07:53:34.738Z,93182.00
2023-03-29T07:54:34.649Z,93182.00
2023-03-29T07:55:34.600Z,93186.00
2023-03-29T07:56:34.576Z,93192.00
2023-03-29T07:57:34.498Z,93188.00
2023-03-29T07:58:34.458Z,93176.00
2023-03-29T07:59:34.420Z,93180.00
2023-03-29T08:00:34.476Z,93178.00
2023-03-29T08:01:34.291Z,93180.00
2023-03-29T08:02:34.363Z,93188.00
2023-03-29T08:03:34.206Z,93190.00
2023-03-29T08:04:34.337Z,93188.00
2023-03-29T08:05:41.147Z,93178.00
2023-03-29T08:06:34.995Z,93172.00
2023-03-29T08:07:33.929Z,93182.00
2023-03-29T08:08:33.869Z,93182.00
2023-03-29T08:09:33.792Z,93167.00
2023-03-29T08:10:33.745Z,93169.00
2023-03-29T08:11:33.680Z,93170.00
2023-03-29T08:12:34.483Z,93165.00
2023-03-29T08:13:33.614Z,93174.00
2023-03-29T08:14:33.472Z,93174.00
2023-03-29T08:15:33.423Z,93188.00
2023-03-29T08:16:33.427Z,93184.00
2023-03-29T08:17:33.347Z,93190.00
2023-03-29T08:18:34.837Z,93182.00
2023-03-29T08:19:33.218Z,93190.00
2023-03-29T08:20:33.164Z,93186.00
2023-03-29T08:21:33.132Z,93184.00
2023-03-29T08:22:33.119Z,93182.00
2023-03-29T08:23:33.108Z,93194.00
2023-03-29T08:24:33.121Z,93194.00
2023-03-29T08:25:33.129Z,93188.00
2023-03-29T08:26:33.930Z,93186.00
2023-03-29T08:27:33.165Z,93182.00
2023-03-29T08:28:33.175Z,93184.00
2023-03-29T08:29:33.990Z,93178.00
2023-03-29T08:30:33.193Z,93170.00
2023-03-29T08:31:33.154Z,93176.00
2023-03-29T08:32:33.127Z,93170.00
2023-03-29T08:33:33.075Z,93157.00
2023-03-29T08:34:33.038Z,93159.00
2023-03-29T08:35:33.057Z,93163.00
2023-03-29T08:36:32.951Z,93161.00
2023-03-29T08:37:32.963Z,93163.00
2023-03-29T08:38:32.842Z,93165.00
2023-03-29T08:39:32.815Z,93170.00
2023-03-29T08:40:32.776Z,93172.00
2023-03-29T08:41:32.738Z,93172.00
2023-03-29T08:42:32.721Z,93174.00
2023-03-29T08:43:32.693Z,93182.00
2023-03-29T08:44:32.643Z,93188.00
2023-03-29T08:45:32.628Z,93186.00
2023-03-29T08:46:35.351Z,93192.00
2023-03-29T08:47:32.599Z,93188.00
2023-03-29T08:48:33.518Z,93184.00
2023-03-29T08:49:33.000Z,93188.00
2023-03-29T08:50:32.412Z,93184.00
2023-03-29T08:51:33.359Z,93184.00
2023-03-29T08:52:32.348Z,93182.00
2023-03-29T08:53:32.290Z,93190.00
2023-03-29T08:54:32.184Z,93184.00
2023-03-29T08:55:32.120Z,93182.00
2023-03-29T08:56:34.133Z,93178.00
2023-03-29T08:57:32.008Z,93174.00
2023-03-29T08:58:31.946Z,93182.00
2023-03-29T08:59:31.883Z,93180.00
2023-03-29T09:00:31.878Z,93174.00
2023-03-29T09:01:31.957Z,93178.00
2023-03-29T09:02:31.940Z,93180.00
2023-03-29T09:03:31.966Z,93180.00
2023-03-29T09:04:31.834Z,93174.00
2023-03-29T09:05:31.820Z,93174.00
2023-03-29T09:06:31.819Z,93170.00
2023-03-29T09:07:31.794Z,93176.00
2023-03-29T09:08:31.794Z,93176.00
2023-03-29T09:09:31.778Z,93184.00
2023-03-29T09:10:31.755Z,93190.00
2023-03-29T09:11:31.739Z,93186.00
2023-03-29T09:12:31.730Z,93180.00
2023-03-29T09:13:31.802Z,93184.00
2023-03-29T09:14:31.677Z,93178.00
2023-03-29T09:15:31.652Z,93172.00
2023-03-29T09:16:31.719Z,93176.00
2023-03-29T09:17:31.663Z,93174.00
2023-03-29T09:18:31.622Z,93172.00
2023-03-29T09:19:31.584Z,93174.00
2023-03-29T09:20:31.553Z,93180.00
2023-03-29T09:21:32.022Z,93186.00
2023-03-29T09:22:31.529Z,93190.00
2023-03-29T09:23:31.504Z,93186.00
2023-03-29T09:24:31.507Z,93182.00
2023-03-29T09:25:36.247Z,93182.00
2023-03-29T09:26:32.481Z,93182.00
2023-03-29T09:27:31.368Z,93184.00
2023-03-29T09:28:31.290Z,93186.00
2023-03-29T09:29:31.249Z,93192.00
2023-03-29T09:30:31.179Z,93196.00
2023-03-29T09:31:31.160Z,93196.00
2023-03-29T09:32:31.083Z,93196.00
2023-03-29T09:33:30.995Z,93200.00
2023-03-29T09:34:30.967Z,93198.00
2023-03-29T09:35:31.015Z,93198.00
2023-03-29T09:36:30.940Z,93198.00
2023-03-29T09:37:30.934Z,93192.00
2023-03-29T09:38:30.923Z,93190.00
2023-03-29T09:39:30.911Z,93188.00
2023-03-29T09:40:30.878Z,93186.00
2023-03-29T09:41:30.843Z,93190.00
2023-03-29T09:42:30.782Z,93188.00
2023-03-29T09:43:30.731Z,93188.00
2023-03-29T09:44:31.692Z,93194.00
2023-03-29T09:45:30.680Z,93198.00
2023-03-29T09:46:30.594Z,93196.00
2023-03-29T09:47:30.543Z,93196.00
2023-03-29T09:48:30.509Z,93194.00
2023-03-29T09:49:30.522Z,93196.00
2023-03-29T09:50:32.262Z,93198.00
2023-03-29T09:51:30.333Z,93206.00
2023-03-29T09:52:30.292Z,93208.00
2023-03-29T09:53:30.246Z,93210.00
2023-03-29T09:54:30.199Z,93208.00
2023-03-29T09:55:30.169Z,93196.00
2023-03-29T09:56:30.117Z,93198.00
2023-03-29T09:57:30.157Z,93204.00
2023-03-29T09:58:30.023Z,93208.00
2023-03-29T09:59:29.987Z,93212.00
2023-03-29T10:00:29.929Z,93210.00
2023-03-29T10:01:29.906Z,93208.00
2023-03-29T10:02:29.865Z,93214.00
2023-03-29T10:03:29.883Z,93216.00
2023-03-29T10:04:29.807Z,93218.00
2023-03-29T10:05:29.720Z,93222.00
2023-03-29T10:06:29.675Z,93222.00
2023-03-29T10:07:29.658Z,93224.00
2023-03-29T10:08:29.622Z,93220.00
2023-03-29T10:09:29.555Z,93220.00
2023-03-29T10:10:29.511Z,93220.00
2023-03-29T10:11:29.501Z,93222.00
2023-03-29T10:12:29.436Z,93216.00
2023-03-29T10:13:29.411Z,93208.00
2023-03-29T10:14:29.364Z,93212.00
2023-03-29T10:15:30.367Z,93218.00
2023-03-29T10:16:29.351Z,93222.00
2023-03-29T10:17:29.294Z,93220.00
2023-03-29T10:18:29.243Z,93212.00
2023-03-29T10:19:29.206Z,93208.00
2023-03-29T10:20:29.963Z,93210.00
2023-03-29T10:21:29.116Z,93210.00
2023-03-29T10:22:29.096Z,93212.00
2023-03-29T10:23:29.056Z,93212.00
2023-03-29T10:24:29.042Z,93214.00
2023-03-29T10:25:29.016Z,93216.00
2023-03-29T10:26:29.030Z,93214.00
2023-03-29T10:27:28.977Z,93214.00
2023-03-29T10:28:28.909Z,93210.00
2023-03-29T10:29:28.881Z,93204.00
2023-03-29T10:30:28.841Z,93202.00
2023-03-29T10:31:28.855Z,93204.00
2023-03-29T10:32:28.884Z,93204.00
2023-03-29T10:33:28.751Z,93198.00
2023-03-29T10:34:28.770Z,93198.00
2023-03-29T10:35:28.691Z,93190.00
2023-03-29T10:36:28.652Z,93188.00
2023-03-29T10:37:28.633Z,93188.00
2023-03-29T10:38:28.604Z,93186.00
2023-03-29T10:39:28.576Z,93182.00
2023-03-29T10:40:28.542Z,93182.00
2023-03-29T10:41:28.516Z,93180.00
2023-03-29T10:42:29.056Z,93180.00
2023-03-29T10:43:28.465Z,93174.00
2023-03-29T10:44:29.768Z,93172.00
2023-03-29T10:45:28.514Z,93174.00
2023-03-29T10:46:28.541Z,93176.00
2023-03-29T10:47:28.453Z,93174.00
2023-03-29T10:48:28.421Z,93172.00
2023-03-29T10:49:28.392Z,93170.00
2023-03-29T10:50:28.367Z,93184.00
2023-03-29T10:51:28.325Z,93186.00
2023-03-29T10:52:28.311Z,93178.00
2023-03-29T10:53:28.272Z,93172.00
2023-03-29T10:54:28.238Z,93170.00
2023-03-29T10:55:28.214Z,93176.00
2023-03-29T10:56:28.183Z,93184.00
2023-03-29T10:57:28.240Z,93178.00
2023-03-29T10:58:28.177Z,93182.00
2023-03-29T10:59:28.097Z,93182.00
2023-03-29T11:00:28.083Z,93180.00
2023-03-29T11:01:28.093Z,93178.00
2023-03-29T11:02:28.165Z,93176.00
2023-03-29T11:03:28.179Z,93172.00
2023-03-29T11:04:27.976Z,93176.00
2023-03-29T11:05:28.015Z,93186.00
2023-03-29T11:06:28.569Z,93184.00
2023-03-29T11:07:27.984Z,93188.00
2023-03-29T11:08:30.420Z,93184.00
2023-03-29T11:09:27.817Z,93180.00
2023-03-29T11:10:28.061Z,93184.00
2023-03-29T11:11:27.703Z,93186.00
2023-03-29T11:12:27.689Z,93186.00
2023-03-29T11:13:27.589Z,93178.00
2023-03-29T11:14:27.510Z,93174.00
2023-03-29T11:15:27.442Z,93180.00
2023-03-29T11:16:27.394Z,93176.00
2023-03-29T11:17:27.355Z,93174.00
2023-03-29T11:18:27.319Z,93169.00
2023-03-29T11:19:27.177Z,93163.00
2023-03-29T11:20:27.135Z,93165.00
2023-03-29T11:21:27.043Z,93167.00
2023-03-29T11:22:26.976Z,93169.00
2023-03-29T11:23:26.911Z,93172.00
2023-03-29T11:24:26.861Z,93167.00
2023-03-29T11:25:29.548Z,93169.00
2023-03-29T11:26:26.728Z,93169.00
2023-03-29T11:27:26.653Z,93174.00
2023-03-29T11:28:26.596Z,93178.00
2023-03-29T11:29:26.543Z,93178.00
2023-03-29T11:30:26.494Z,93178.00
2023-03-29T11:31:26.474Z,93180.00
2023-03-29T11:32:26.378Z,93178.00
2023-03-29T11:33:26.312Z,93180.00
2023-03-29T11:34:26.263Z,93182.00
2023-03-29T11:35:26.263Z,93180.00
2023-03-29T11:36:26.138Z,93178.00
2023-03-29T11:37:26.095Z,93178.00
2023-03-29T11:38:26.048Z,93184.00
2023-03-29T11:39:25.961Z,93182.00
2023-03-29T11:40:25.902Z,93178.00
2023-03-29T11:41:25.846Z,93178.00
2023-03-29T11:42:26.494Z,93174.00
2023-03-29T11:43:25.712Z,93178.00
2023-03-29T11:44:25.661Z,93186.00